Time;durP1;ratioP1;P1;durP2;ratioP2;P2;SDS_P1;SDS_P2;PMS_P1;PMS_P2;Temp;Humidity;BMP_temperature;BMP_pressure;BME280_temperature;BME280_humidity;BME280_pressure;Samples;Min_cycle;Max_cycle;Signal;HPM_P1;HPM_P2
2022/11/05 00:10:15;;;;;;;4.40;3.97;;;;;;;8.15;86.67;101399.06;5053062;28;20075;-61
2022/11/05 00:18:14;;;;;;;7.13;4.85;;;;;;;8.00;86.44;101409.47;5041282;28;20048;-61
2022/11/05 00:20:39;;;;;;;7.90;4.70;;;;;;;8.02;86.14;101404.97;5052924;28;20032;-61
2022/11/05 00:26:18;;;;;;;5.70;4.78;;;;;;;8.09;85.90;101406.41;5052385;28;20526;-61
2022/11/05 00:28:44;;;;;;;7.20;4.53;;;;;;;7.93;85.90;101403.56;5046514;28;20048;-61
2022/11/05 00:31:12;;;;;;;9.32;5.30;;;;;;;7.91;85.87;101410.72;5052499;28;20476;-61
2022/11/05 00:33:39;;;;;;;5.70;5.10;;;;;;;7.82;85.36;101413.75;5052180;28;20104;-61
2022/11/05 00:36:06;;;;;;;5.68;4.82;;;;;;;7.80;85.51;101415.63;5035238;28;20099;-61
2022/11/05 00:38:33;;;;;;;6.53;4.72;;;;;;;7.71;85.86;101416.88;5036469;28;20488;-61
2022/11/05 00:40:58;;;;;;;4.88;4.47;;;;;;;7.67;85.70;101417.91;5035725;28;20420;-61
2022/11/05 00:46:11;;;;;;;6.30;4.65;;;;;;;7.64;85.20;101431.28;5052154;28;20411;-61
2022/11/05 00:51:20;;;;;;;5.57;5.07;;;;;;;7.49;86.52;101435.41;5048199;28;20044;-61
2022/11/05 00:53:46;;;;;;;5.25;4.75;;;;;;;7.39;86.33;101445.53;5014771;28;20026;-61
2022/11/05 00:56:11;;;;;;;6.35;5.15;;;;;;;7.38;85.66;101445.56;5047155;28;20408;-61
2022/11/05 00:58:37;;;;;;;5.95;4.38;;;;;;;7.38;86.01;101448.22;5042758;28;20516;-61
2022/11/05 01:01:03;;;;;;;5.50;4.57;;;;;;;7.35;85.97;101449.19;5017039;28;20449;-61
2022/11/05 01:03:31;;;;;;;5.35;4.80;;;;;;;7.25;86.24;101446.06;5039328;28;20444;-61
2022/11/05 01:06:05;;;;;;;7.88;5.00;;;;;;;7.28;86.14;101453.03;5035912;28;20453;-61
2022/11/05 01:08:31;;;;;;;5.78;4.97;;;;;;;7.21;85.85;101451.56;5035322;28;20056;-61
2022/11/05 01:10:57;;;;;;;6.43;4.80;;;;;;;7.20;85.86;101453.31;5048205;28;20063;-61
2022/11/05 01:13:28;;;;;;;7.25;4.95;;;;;;;7.08;86.24;101453.78;5052211;28;20499;-61
2022/11/05 01:15:56;;;;;;;7.53;5.40;;;;;;;6.96;86.15;101451.63;5051002;28;20025;-61
2022/11/05 01:18:23;;;;;;;8.63;5.60;;;;;;;6.95;86.64;101458.72;5052314;28;20383;-61
2022/11/05 01:20:49;;;;;;;8.15;5.95;;;;;;;7.00;87.25;101469.97;5051954;28;20024;-61
2022/11/05 01:23:15;;;;;;;7.55;5.70;;;;;;;7.05;86.60;101480.38;5049184;28;20111;-61
2022/11/05 01:25:41;;;;;;;6.80;6.10;;;;;;;7.00;86.69;101469.09;5031229;28;20025;-61
2022/11/05 01:28:10;;;;;;;8.68;5.40;;;;;;;6.94;86.92;101478.16;5039677;28;20504;-60
2022/11/05 01:30:36;;;;;;;6.22;5.63;;;;;;;6.95;86.66;101471.94;5035141;28;20377;-61
2022/11/05 01:33:02;;;;;;;9.57;5.65;;;;;;;7.07;88.29;101475.88;5050543;28;20024;-61
2022/11/05 01:35:28;;;;;;;10.55;5.97;;;;;;;6.98;88.74;101482.38;5049986;28;20025;-61
2022/11/05 01:37:53;;;;;;;9.18;6.20;;;;;;;6.98;88.32;101481.53;5051699;28;20017;-61
2022/11/05 01:40:22;;;;;;;8.15;6.25;;;;;;;6.90;88.39;101473.88;5046911;28;20386;-61
2022/11/05 01:42:49;;;;;;;9.07;6.07;;;;;;;7.00;88.32;101482.31;5047935;28;20039;-61
2022/11/05 01:45:25;;;;;;;7.43;6.00;;;;;;;7.00;88.15;101482.31;5049999;28;20223;-61
2022/11/05 01:47:55;;;;;;;7.13;5.60;;;;;;;6.93;88.17;101486.13;5051772;28;20074;-60
2022/11/05 01:50:34;;;;;;;8.55;5.95;;;;;;;6.94;88.02;101485.19;5049800;28;20388;-61
2022/11/05 01:53:04;;;;;;;9.13;6.20;;;;;;;6.89;87.44;101481.88;5051700;28;20059;-61
2022/11/05 01:55:35;;;;;;;6.40;5.55;;;;;;;6.70;87.49;101474.63;5051350;28;20029;-61
2022/11/05 01:58:02;;;;;;;7.68;5.47;;;;;;;6.75;87.59;101482.38;5050248;28;20033;-60
2022/11/05 02:00:27;;;;;;;7.07;5.82;;;;;;;6.75;86.83;101479.75;5049576;28;20432;-61
2022/11/05 02:02:53;;;;;;;6.63;6.03;;;;;;;6.68;87.17;101480.91;5049241;28;20047;-61
2022/11/05 02:05:19;;;;;;;6.80;5.88;;;;;;;6.72;87.29;101477.22;5051385;28;20029;-61
2022/11/05 02:07:46;;;;;;;7.03;5.72;;;;;;;6.57;87.03;101460.13;5045386;28;20033;-61
2022/11/05 02:10:14;;;;;;;6.15;5.55;;;;;;;6.57;87.83;101476.00;5029792;28;20060;-61
2022/11/05 02:12:44;;;;;;;6.57;5.97;;;;;;;6.47;87.89;101464.00;5034904;28;20071;-60
2022/11/05 02:15:35;;;;;;;7.78;5.97;;;;;;;6.47;88.22;101458.72;5048940;28;20029;-61
2022/11/05 02:18:16;;;;;;;7.82;6.13;;;;;;;6.55;87.97;101469.91;5036783;28;20029;-61
2022/11/05 02:21:13;;;;;;;8.68;6.25;;;;;;;6.66;87.88;101466.88;5031098;28;20429;-61
2022/11/05 02:24:35;;;;;;;8.82;6.45;;;;;;;6.62;88.08;101471.41;5037783;28;20052;-61
2022/11/05 02:27:01;;;;;;;8.00;6.47;;;;;;;6.49;87.68;101463.06;5015229;28;20041;-62
2022/11/05 02:29:46;;;;;;;8.77;6.60;;;;;;;6.55;88.03;101476.03;5028296;28;20025;-61
2022/11/05 02:32:29;;;;;;;12.60;7.57;;;;;;;6.48;89.07;101476.34;5030939;28;20041;-60
2022/11/05 02:35:28;;;;;;;9.15;7.20;;;;;;;6.38;88.60;101467.84;5037523;28;20030;-60
2022/11/05 02:38:06;;;;;;;12.27;7.13;;;;;;;6.38;88.76;101462.56;5030838;28;20036;-61
2022/11/05 02:40:31;;;;;;;10.45;7.05;;;;;;;6.33;88.83;101468.03;5036721;28;20028;-61
2022/11/05 02:43:19;;;;;;;9.48;7.13;;;;;;;6.31;88.54;101464.56;5050082;28;20384;-61
2022/11/05 02:45:58;;;;;;;13.43;6.72;;;;;;;6.41;88.58;101459.81;5032143;28;20029;-61
2022/11/05 02:48:49;;;;;;;10.07;7.30;;;;;;;6.32;88.92;101466.31;5047032;28;20480;-61
2022/11/05 02:51:56;;;;;;;9.65;7.57;;;;;;;6.36;87.97;101465.28;5034981;28;20609;-60
2022/11/05 02:54:32;;;;;;;8.13;7.25;;;;;;;6.43;87.90;101460.63;5032194;28;20031;-61
2022/11/05 02:56:59;;;;;;;8.68;7.05;;;;;;;6.36;88.38;101459.13;5034380;28;20447;-60
2022/11/05 02:59:25;;;;;;;9.07;6.97;;;;;;;6.14;87.98;101464.28;5033528;28;20044;-61
2022/11/05 03:01:52;;;;;;;9.57;8.00;;;;;;;6.14;88.41;101461.66;5053609;28;20029;-61
2022/11/05 03:04:21;;;;;;;9.57;8.57;;;;;;;6.19;88.71;101466.78;5054725;28;20023;-61
2022/11/05 03:06:46;;;;;;;9.70;8.55;;;;;;;6.22;88.53;101462.25;5049222;28;20033;-61
2022/11/05 03:09:25;;;;;;;11.48;8.27;;;;;;;6.20;89.17;101461.44;5054731;28;20047;-61
2022/11/05 03:12:12;;;;;;;10.20;8.00;;;;;;;6.09;89.01;101461.84;5054437;28;20107;-61
2022/11/05 03:15:15;;;;;;;10.55;8.30;;;;;;;6.20;88.12;101463.22;5054663;28;20079;-61
2022/11/05 03:17:52;;;;;;;9.48;8.48;;;;;;;6.09;89.10;101460.97;5034407;28;20037;-61
2022/11/05 03:20:55;;;;;;;13.20;8.65;;;;;;;6.18;88.80;101465.94;5034313;28;20036;-60
2022/11/05 03:23:26;;;;;;;13.15;9.05;;;;;;;6.06;88.79;101459.31;5034683;28;20045;-61
2022/11/05 03:26:17;;;;;;;14.73;9.02;;;;;;;6.13;89.66;101459.94;5058902;28;20055;-61
2022/11/05 03:28:51;;;;;;;14.18;9.38;;;;;;;6.02;89.53;101467.38;5047460;28;20049;-61
2022/11/05 03:31:24;;;;;;;15.13;10.27;;;;;;;6.05;90.19;101459.34;5036726;28;20033;-61
2022/11/05 03:33:52;;;;;;;15.65;10.38;;;;;;;6.08;90.40;101468.00;5034293;28;20032;-61
2022/11/05 03:36:40;;;;;;;18.38;10.75;;;;;;;6.14;90.81;101477.50;5036764;28;20021;-60
2022/11/05 03:39:11;;;;;;;16.67;10.63;;;;;;;6.12;91.09;101474.94;5052065;28;20020;-60
2022/11/05 03:41:42;;;;;;;14.85;10.73;;;;;;;6.09;90.61;101474.19;5037029;28;20488;-61
2022/11/05 03:44:10;;;;;;;16.13;11.05;;;;;;;6.14;91.00;101477.50;5039744;28;20059;-61
2022/11/05 03:46:48;;;;;;;16.40;11.23;;;;;;;6.08;90.91;101467.16;5042490;28;20439;-60
2022/11/05 03:49:20;;;;;;;15.57;11.27;;;;;;;6.01;90.96;101468.28;5037751;28;20114;-60
2022/11/05 03:51:58;;;;;;;15.50;10.90;;;;;;;6.01;91.11;101468.28;5035724;28;20036;-60
2022/11/05 03:54:23;;;;;;;16.67;11.80;;;;;;;6.07;91.23;101474.22;5036235;28;20033;-61
2022/11/05 03:57:11;;;;;;;14.10;11.32;;;;;;;6.09;91.56;101475.03;5044265;28;20107;-61
2022/11/05 03:59:41;;;;;;;20.30;13.05;;;;;;;5.98;91.08;101474.53;5033458;28;20030;-61
2022/11/05 04:02:12;;;;;;;16.27;12.07;;;;;;;5.94;91.59;101482.59;5048369;28;20676;-60
2022/11/05 04:04:38;;;;;;;15.88;11.48;;;;;;;5.86;91.12;101472.28;5049579;28;20024;-60
2022/11/05 04:15:21;;;;;;;17.75;13.05;;;;;;;5.81;92.18;101490.03;5032919;28;20098;-60
2022/11/05 04:17:50;;;;;;;17.13;12.13;;;;;;;5.87;92.26;101489.84;5048706;28;20135;-61
2022/11/05 04:25:46;;;;;;;14.93;12.68;;;;;;;5.75;91.85;101500.81;5051802;28;20166;-61
2022/11/05 04:28:12;;;;;;;15.68;13.20;;;;;;;5.77;91.70;101493.72;5053119;28;20051;-61
2022/11/05 04:30:38;;;;;;;19.88;13.30;;;;;;;5.77;92.52;101497.19;5052128;28;20029;-61
2022/11/05 04:33:04;;;;;;;15.10;12.50;;;;;;;5.80;92.53;101497.09;5051342;28;20558;-61
2022/11/05 04:35:47;;;;;;;13.35;12.00;;;;;;;5.81;92.55;101492.69;5052702;28;20033;-60
2022/11/05 04:38:17;;;;;;;20.05;12.07;;;;;;;5.67;92.46;101493.97;5052634;28;20044;-61
2022/11/05 04:40:44;;;;;;;15.55;12.90;;;;;;;5.73;92.18;101497.34;5052452;28;20075;-60
2022/11/05 04:43:12;;;;;;;17.13;12.10;;;;;;;5.67;92.83;101499.25;5043077;28;20063;-61
2022/11/05 04:45:38;;;;;;;14.88;13.02;;;;;;;5.74;92.28;101496.44;5052923;28;20025;-61
2022/11/05 04:48:07;;;;;;;17.25;12.95;;;;;;;5.71;93.12;101502.69;5026224;28;20056;-61
2022/11/05 04:50:32;;;;;;;18.45;12.88;;;;;;;5.66;92.33;101515.16;5031409;28;20400;-60
2022/11/05 04:52:58;;;;;;;17.88;12.73;;;;;;;5.67;92.32;101503.66;5031651;28;20348;-60
2022/11/05 04:55:24;;;;;;;19.85;13.38;;;;;;;5.65;92.73;101505.53;5032315;28;20036;-60
2022/11/05 04:57:50;;;;;;;16.20;12.93;;;;;;;5.71;92.44;101510.59;5031407;28;20029;-61
2022/11/05 05:00:17;;;;;;;18.02;12.93;;;;;;;5.75;92.96;101511.34;5032691;28;20029;-60
2022/11/05 05:02:44;;;;;;;15.98;13.20;;;;;;;5.74;92.99;101521.06;5036151;28;20033;-60
2022/11/05 05:05:12;;;;;;;18.40;12.93;;;;;;;5.69;93.16;101518.56;5046962;28;20484;-60
2022/11/05 05:07:38;;;;;;;18.65;13.23;;;;;;;5.78;92.63;101524.44;5035830;28;20087;-60
2022/11/05 05:10:05;;;;;;;18.27;13.43;;;;;;;5.72;93.18;101519.38;5046575;28;20052;-60
2022/11/05 05:12:32;;;;;;;19.27;14.18;;;;;;;5.72;93.17;101522.00;5051862;28;20423;-61
2022/11/05 05:14:58;;;;;;;15.90;13.52;;;;;;;5.76;93.53;101519.22;5044479;28;20037;-60
2022/11/05 05:17:24;;;;;;;15.98;13.82;;;;;;;5.65;93.18;101502.88;5031357;28;20079;-61
2022/11/05 05:22:36;;;;;;;17.48;14.13;;;;;;;5.67;92.51;101528.28;5045875;28;20120;-61
2022/11/05 05:25:04;;;;;;;17.27;12.85;;;;;;;5.71;92.82;101521.16;5042896;28;20038;-60
2022/11/05 05:27:30;;;;;;;17.55;13.70;;;;;;;5.77;92.92;101528.00;5044430;28;20484;-60
2022/11/05 05:29:59;;;;;;;18.38;13.05;;;;;;;5.75;92.50;101532.47;5051748;28;20036;-61
2022/11/05 05:32:25;;;;;;;18.08;13.38;;;;;;;5.69;92.21;101530.88;5032053;28;20384;-60
2022/11/05 05:34:51;;;;;;;13.98;12.52;;;;;;;5.62;92.14;101527.59;5032460;28;20021;-60
2022/11/05 05:37:19;;;;;;;16.27;13.10;;;;;;;5.63;92.57;101533.72;5049704;28;20033;-60
2022/11/05 05:39:49;;;;;;;15.48;12.98;;;;;;;5.58;92.54;101539.13;5035012;28;20029;-61
2022/11/05 05:42:17;;;;;;;15.65;13.07;;;;;;;5.53;92.14;101543.72;5030523;28;20048;-61
2022/11/05 05:44:42;;;;;;;20.58;13.38;;;;;;;5.59;92.94;101542.63;5030503;28;20443;-61
2022/11/05 05:47:08;;;;;;;19.95;13.27;;;;;;;5.53;92.81;101538.44;5043944;28;20078;-60
2022/11/05 05:49:36;;;;;;;19.40;12.95;;;;;;;5.58;93.02;101549.69;5050634;28;20047;-60
2022/11/05 05:52:01;;;;;;;16.70;12.70;;;;;;;5.52;93.28;101541.09;5029887;28;20037;-61
2022/11/05 05:54:27;;;;;;;17.23;12.85;;;;;;;5.54;93.15;101545.44;5049140;28;20029;-61
2022/11/05 05:56:53;;;;;;;18.25;13.50;;;;;;;5.46;93.35;101539.50;5035613;28;20404;-61
2022/11/05 05:59:18;;;;;;;17.88;13.15;;;;;;;5.52;93.43;101538.47;5031677;28;20034;-60
2022/11/05 06:01:43;;;;;;;17.15;13.10;;;;;;;5.44;93.60;101544.84;5030519;28;20030;-60
2022/11/05 06:04:09;;;;;;;17.30;13.32;;;;;;;5.45;93.13;101543.94;5032831;28;20505;-61
2022/11/05 06:06:38;;;;;;;16.60;12.77;;;;;;;5.51;93.14;101548.16;5041828;28;20025;-61
2022/11/05 06:09:03;;;;;;;15.05;13.30;;;;;;;5.46;93.37;101544.78;5050400;28;20059;-61
2022/11/05 06:11:29;;;;;;;16.65;12.90;;;;;;;5.47;93.20;101539.47;5037046;28;20025;-61
2022/11/05 06:13:54;;;;;;;20.40;13.57;;;;;;;5.49;93.50;101535.91;5029987;28;20480;-61
2022/11/05 06:16:22;;;;;;;17.38;13.27;;;;;;;5.42;93.71;101535.25;5041597;28;20025;-61
2022/11/05 06:18:50;;;;;;;16.63;12.95;;;;;;;5.44;93.53;101543.97;5031062;28;20457;-61
2022/11/05 06:21:19;;;;;;;17.20;12.65;;;;;;;5.39;93.53;101551.19;5042512;28;20055;-60
2022/11/05 06:23:48;;;;;;;19.10;13.13;;;;;;;5.42;93.15;101551.94;5047983;28;20045;-61
2022/11/05 06:26:17;;;;;;;14.88;13.23;;;;;;;5.39;92.99;101557.31;5036276;28;20064;-61
2022/11/05 06:28:43;;;;;;;17.83;12.90;;;;;;;5.37;93.14;101545.06;5035342;28;20443;-60
2022/11/05 06:31:09;;;;;;;14.55;12.65;;;;;;;5.37;93.29;101553.00;5037225;28;20079;-60
2022/11/05 06:33:35;;;;;;;15.40;12.70;;;;;;;5.28;93.22;101556.75;5055102;28;20115;-60
2022/11/05 06:36:05;;;;;;;18.52;13.27;;;;;;;5.27;93.66;101543.63;5050453;28;20112;-60
2022/11/05 06:38:35;;;;;;;17.33;13.52;;;;;;;5.30;93.30;101559.38;5042413;28;20033;-61
2022/11/05 06:41:01;;;;;;;18.52;12.88;;;;;;;5.35;93.11;101562.72;5053305;28;20082;-61
2022/11/05 06:43:29;;;;;;;16.65;12.77;;;;;;;5.35;93.61;101565.34;5051665;28;20032;-61
2022/11/05 06:45:56;;;;;;;18.95;12.88;;;;;;;5.31;93.56;101559.31;5049543;28;20551;-60
2022/11/05 06:48:22;;;;;;;15.98;13.02;;;;;;;5.34;93.79;101559.22;5040923;28;20029;-60
2022/11/05 06:50:47;;;;;;;20.20;13.25;;;;;;;5.38;93.19;101562.63;5051991;28;20437;-60
2022/11/05 06:53:13;;;;;;;16.52;13.18;;;;;;;5.31;93.56;101555.81;5053112;28;20029;-60
2022/11/05 06:55:43;;;;;;;17.73;12.35;;;;;;;5.37;93.21;101561.75;5052305;28;20391;-61
2022/11/05 06:58:09;;;;;;;16.75;12.52;;;;;;;5.33;93.13;101546.94;5035562;28;20037;-60
2022/11/05 07:00:34;;;;;;;15.15;13.68;;;;;;;5.32;93.24;101568.06;5049393;28;20510;-61
2022/11/05 07:03:07;;;;;;;17.40;13.07;;;;;;;5.37;93.42;101569.66;5050316;28;20040;-60
2022/11/05 07:05:35;;;;;;;16.13;13.48;;;;;;;5.35;93.45;101570.63;5035131;28;20703;-60
2022/11/05 07:08:01;;;;;;;17.60;12.90;;;;;;;5.32;93.05;101579.47;5050806;28;20044;-61
2022/11/05 07:10:27;;;;;;;19.45;13.15;;;;;;;5.40;93.68;101580.13;5042572;28;20102;-60
2022/11/05 07:12:55;;;;;;;14.75;13.02;;;;;;;5.41;93.33;101581.88;5046638;28;20060;-61
2022/11/05 07:15:20;;;;;;;17.75;13.73;;;;;;;5.38;93.35;101581.97;5034387;28;20112;-61
2022/11/05 07:17:49;;;;;;;16.00;12.55;;;;;;;5.40;93.45;101580.13;5033117;28;20078;-60
2022/11/05 07:20:17;;;;;;;18.02;13.15;;;;;;;5.39;93.34;101582.81;5047006;28;20029;-60
2022/11/05 07:22:45;;;;;;;16.70;12.85;;;;;;;5.35;93.33;101584.66;5046048;28;20523;-61
2022/11/05 07:25:10;;;;;;;15.35;13.55;;;;;;;5.35;93.42;101583.81;5031653;28;20053;-60
2022/11/05 07:27:39;;;;;;;18.27;12.60;;;;;;;5.39;93.50;101582.81;5040382;28;20036;-60
2022/11/05 07:30:08;;;;;;;16.25;13.68;;;;;;;5.41;93.93;101591.53;5046889;28;20036;-60
2022/11/05 07:32:40;;;;;;;17.85;13.65;;;;;;;5.35;93.98;101581.16;5042000;28;20048;-60
2022/11/05 07:35:07;;;;;;;15.52;13.93;;;;;;;5.41;94.43;101595.06;5034009;28;20036;-60
2022/11/05 07:37:40;;;;;;;18.02;14.13;;;;;;;5.39;94.40;101598.66;5034579;28;20028;-61
2022/11/05 07:40:06;;;;;;;15.93;12.60;;;;;;;5.45;94.38;101601.13;5036143;28;20038;-60
2022/11/05 07:42:33;;;;;;;17.38;13.98;;;;;;;5.42;94.43;101593.28;5066052;28;20488;-60
2022/11/05 07:45:01;;;;;;;19.40;14.25;;;;;;;5.50;94.50;101608.88;5049870;28;20024;-60
2022/11/05 07:47:27;;;;;;;14.70;13.05;;;;;;;5.47;94.33;101610.72;5042485;28;20021;-61
2022/11/05 07:49:53;;;;;;;18.67;13.55;;;;;;;5.63;94.50;101612.88;5038461;28;20408;-61
2022/11/05 07:52:18;;;;;;;17.60;14.70;;;;;;;5.58;94.71;101604.25;5034053;28;20018;-60
2022/11/05 07:54:46;;;;;;;18.88;14.55;;;;;;;5.65;94.58;101616.34;5036037;28;20104;-61
2022/11/05 07:57:14;;;;;;;21.48;15.00;;;;;;;5.67;94.97;101612.72;5033671;28;20112;-61
2022/11/05 07:59:40;;;;;;;16.83;14.75;;;;;;;5.70;95.01;101617.91;5043422;28;20029;-60
2022/11/05 08:02:09;;;;;;;15.82;14.18;;;;;;;5.73;94.36;101619.59;5046861;28;20404;-61
2022/11/05 08:04:39;;;;;;;20.33;14.85;;;;;;;5.73;95.12;101605.53;5044919;28;20048;-61
2022/11/05 08:07:04;;;;;;;19.83;14.98;;;;;;;5.78;94.92;101606.28;5062304;28;20029;-61
2022/11/05 08:09:29;;;;;;;17.23;14.48;;;;;;;5.80;95.09;101605.31;5038676;28;20051;-61
2022/11/05 08:11:57;;;;;;;17.42;14.90;;;;;;;5.83;95.40;101617.56;5032126;28;20112;-61
2022/11/05 08:14:22;;;;;;;20.38;16.23;;;;;;;5.85;95.76;101607.78;5039189;28;20036;-61
2022/11/05 08:16:50;;;;;;;21.52;15.82;;;;;;;5.89;95.73;101614.72;5052000;28;20384;-61
2022/11/05 08:19:16;;;;;;;22.95;16.58;;;;;;;6.00;95.82;101612.66;5035060;28;20119;-60
2022/11/05 08:21:43;;;;;;;22.17;16.05;;;;;;;6.10;95.80;101611.44;5052356;28;20116;-60
2022/11/05 08:24:11;;;;;;;22.92;16.50;;;;;;;6.14;95.75;101606.91;5050731;28;20065;-61
2022/11/05 08:26:37;;;;;;;26.05;16.83;;;;;;;6.22;96.32;101615.44;5032806;28;20499;-61
2022/11/05 08:29:02;;;;;;;20.20;15.57;;;;;;;6.26;96.08;101611.78;5032966;28;20037;-61
2022/11/05 08:31:29;;;;;;;17.75;15.07;;;;;;;6.34;95.17;101611.53;5032625;28;20487;-61
2022/11/05 08:33:55;;;;;;;18.05;14.73;;;;;;;6.32;95.06;101601.03;5031702;28;20037;-60
2022/11/05 08:36:21;;;;;;;17.92;15.77;;;;;;;6.39;94.97;101612.25;5047597;28;20035;-61
2022/11/05 08:38:48;;;;;;;20.67;15.40;;;;;;;6.46;94.83;101603.19;5051147;28;20098;-60
2022/11/05 08:41:16;;;;;;;21.67;15.63;;;;;;;6.53;95.35;101619.72;5050809;28;20061;-61
2022/11/05 08:43:41;;;;;;;20.25;14.93;;;;;;;6.59;95.02;101617.75;5050280;28;20476;-60
2022/11/05 08:46:07;;;;;;;18.33;15.18;;;;;;;6.68;95.67;101610.41;5032859;28;20045;-60
2022/11/05 08:48:32;;;;;;;18.02;14.40;;;;;;;6.76;94.99;101611.00;5015209;28;20450;-60
2022/11/05 08:50:59;;;;;;;18.70;15.10;;;;;;;6.82;94.97;101608.13;5032465;28;20037;-60
2022/11/05 08:53:27;;;;;;;19.38;14.25;;;;;;;6.94;94.32;101609.47;5032661;28;20026;-61
2022/11/05 08:55:57;;;;;;;17.10;13.90;;;;;;;7.01;93.77;101616.28;5033370;28;20524;-60
2022/11/05 08:58:22;;;;;;;;;;;;;;;7.10;93.78;101607.16;5032853;28;20038;-61
2022/11/05 09:00:48;;;;;;;17.83;13.73;;;;;;;7.08;93.48;101599.28;5032451;28;20280;-61
2022/11/05 09:03:16;;;;;;;18.33;13.57;;;;;;;7.25;93.50;101611.88;5032309;28;20029;-60
2022/11/05 09:05:43;;;;;;;19.20;14.07;;;;;;;7.34;93.23;101610.69;5033266;28;20124;-61
2022/11/05 09:08:11;;;;;;;18.40;13.93;;;;;;;7.40;92.46;101616.59;5031164;28;20111;-60
2022/11/05 09:10:40;;;;;;;18.25;13.25;;;;;;;7.49;92.14;101618.91;5032061;28;20025;-60
2022/11/05 09:13:06;;;;;;;18.23;13.85;;;;;;;7.65;93.07;101613.91;5032419;28;20475;-61
2022/11/05 09:15:32;;;;;;;14.05;11.82;;;;;;;7.62;90.97;101611.38;5031938;28;20040;-60
2022/11/05 09:17:58;;;;;;;19.45;13.07;;;;;;;7.84;91.04;101607.88;5030971;28;20062;-60
2022/11/05 09:20:24;;;;;;;15.52;12.25;;;;;;;7.93;90.36;101618.09;5031825;28;20438;-60
2022/11/05 09:22:50;;;;;;;15.20;11.68;;;;;;;8.13;90.65;101604.06;5030649;28;20029;-61
2022/11/05 09:25:16;;;;;;;15.68;11.98;;;;;;;8.14;90.03;101611.09;5032799;28;20120;-61
2022/11/05 09:27:42;;;;;;;12.70;11.35;;;;;;;8.24;89.21;101615.09;5040209;28;20037;-61
2022/11/05 09:30:09;;;;;;;17.55;12.10;;;;;;;8.18;89.35;101587.06;5031788;28;20098;-61
2022/11/05 09:32:35;;;;;;;14.88;11.90;;;;;;;8.36;87.89;101614.59;5031016;28;20024;-61
2022/11/05 09:35:00;;;;;;;14.07;11.75;;;;;;;8.46;88.55;101615.09;5031775;28;20492;-61
2022/11/05 09:37:26;;;;;;;14.48;11.05;;;;;;;8.58;88.05;101617.22;5032665;28;20495;-61
2022/11/05 09:39:52;;;;;;;15.70;11.13;;;;;;;8.70;87.41;101620.28;5030013;28;20425;-61
2022/11/05 09:42:20;;;;;;;17.83;10.73;;;;;;;8.76;86.47;101622.66;5031580;28;20114;-61
2022/11/05 09:44:51;;;;;;;16.67;10.80;;;;;;;8.93;86.30;101625.44;5031764;28;20059;-61
2022/11/05 09:47:25;;;;;;;13.60;10.75;;;;;;;9.10;85.64;101630.03;5032905;28;20164;-61
2022/11/05 09:49:54;;;;;;;18.00;10.15;;;;;;;9.20;84.93;101626.03;5031587;28;20074;-61
2022/11/05 09:52:24;;;;;;;14.77;9.50;;;;;;;9.40;84.18;101635.75;5031899;28;20029;-61
2022/11/05 09:54:50;;;;;;;;;;;;;;;9.70;85.49;101633.47;5030260;28;20029;-61
2022/11/05 09:57:20;;;;;;;16.92;9.35;;;;;;;10.02;82.40;101639.91;5031470;28;20284;-61
2022/11/05 10:00:00;;;;;;;14.10;9.43;;;;;;;10.23;81.37;101642.47;5042362;28;20029;-61
2022/11/05 10:02:31;;;;;;;12.20;9.70;;;;;;;10.11;81.19;101643.91;5051560;28;20040;-61
2022/11/05 10:05:10;;;;;;;12.50;9.30;;;;;;;10.11;81.71;101649.22;5051425;28;20031;-61
2022/11/05 10:07:44;;;;;;;11.73;9.33;;;;;;;10.05;81.10;101646.03;5049971;28;20028;-61
2022/11/05 10:10:28;;;;;;;14.30;8.77;;;;;;;9.96;80.63;101656.16;5040763;28;20029;-61
2022/11/05 10:12:58;;;;;;;14.30;8.68;;;;;;;9.83;80.34;101641.75;5031346;28;20078;-61
2022/11/05 10:15:29;;;;;;;11.27;8.25;;;;;;;9.88;81.64;101653.03;5040288;28;20377;-61
2022/11/05 10:18:00;;;;;;;14.52;9.43;;;;;;;9.83;81.43;101656.81;5051139;28;20029;-61
2022/11/05 10:20:37;;;;;;;11.52;8.95;;;;;;;9.76;80.94;101670.41;5049380;28;20433;-61
2022/11/05 10:23:15;;;;;;;14.70;9.75;;;;;;;9.74;80.79;101669.59;5051061;28;20392;-61
2022/11/05 10:25:46;;;;;;;12.48;8.90;;;;;;;9.71;81.47;101667.06;5050169;28;20037;-61
2022/11/05 10:28:23;;;;;;;13.50;8.88;;;;;;;9.69;81.50;101668.94;5051496;28;20632;-61
2022/11/05 10:30:55;;;;;;;12.40;9.13;;;;;;;9.66;83.30;101673.53;5045962;28;20036;-61
2022/11/05 10:33:30;;;;;;;13.60;9.65;;;;;;;9.60;80.94;101676.47;5029773;28;20507;-61
2022/11/05 10:36:03;;;;;;;13.27;9.80;;;;;;;9.46;82.16;101672.63;5036207;28;20025;-61
2022/11/05 10:38:31;;;;;;;15.32;9.48;;;;;;;9.55;82.27;101676.66;5049878;28;20033;-60
2022/11/05 10:41:08;;;;;;;12.20;9.20;;;;;;;9.57;83.17;101680.13;5050345;28;20021;-61
2022/11/05 10:43:43;;;;;;;11.88;9.65;;;;;;;9.62;82.77;101670.16;5051363;28;20021;-61
2022/11/05 10:46:29;;;;;;;13.82;10.10;;;;;;;9.57;81.48;101668.66;5047929;28;20116;-61
2022/11/05 10:49:23;;;;;;;14.10;9.25;;;;;;;9.59;81.87;101670.31;5050140;28;20071;-60
2022/11/05 10:51:58;;;;;;;15.65;9.73;;;;;;;9.58;82.40;101667.69;5051099;28;20079;-60
2022/11/05 10:54:30;;;;;;;17.90;9.95;;;;;;;9.59;81.49;101657.03;5049069;28;20021;-60
2022/11/05 10:56:57;;;;;;;15.93;8.88;;;;;;;9.59;82.41;101658.78;5045100;28;20112;-60
2022/11/05 10:59:28;;;;;;;14.40;10.32;;;;;;;9.64;82.09;101660.31;4997108;28;20108;-60
2022/11/05 11:02:01;;;;;;;14.85;9.65;;;;;;;9.66;81.80;101649.63;5026121;28;20025;-60
2022/11/05 11:04:31;;;;;;;15.23;9.90;;;;;;;9.75;82.31;101657.16;5037670;28;20068;-60
2022/11/05 11:06:58;;;;;;;15.88;10.73;;;;;;;9.82;82.17;101660.38;5038477;28;20379;-60
2022/11/05 11:09:31;;;;;;;14.45;9.77;;;;;;;9.93;82.72;101666.91;5032654;28;20032;-61
2022/11/05 11:12:04;;;;;;;14.27;9.82;;;;;;;10.00;81.40;101664.88;5033402;28;20384;-60
2022/11/05 11:14:30;;;;;;;15.38;10.02;;;;;;;10.07;81.28;101660.09;5034333;28;20040;-61
2022/11/05 11:17:24;;;;;;;16.13;9.95;;;;;;;10.15;80.90;101663.25;5034532;28;20017;-61
2022/11/05 11:20:15;;;;;;;13.70;9.27;;;;;;;10.28;80.33;101667.06;5034266;28;20029;-60
2022/11/05 11:22:40;;;;;;;14.35;9.02;;;;;;;10.44;79.18;101653.88;5053336;28;20458;-61
2022/11/05 11:25:38;;;;;;;15.23;9.20;;;;;;;10.72;79.55;101653.34;5033481;28;20125;-61
2022/11/05 11:28:13;;;;;;;14.00;9.70;;;;;;;10.89;77.34;101653.38;5033120;28;20087;-60
2022/11/05 11:30:45;;;;;;;12.13;9.25;;;;;;;11.34;75.49;101641.22;5033912;28;20107;-61
2022/11/05 11:33:18;;;;;;;12.98;8.60;;;;;;;11.93;72.73;101643.41;5034265;28;20496;-61
2022/11/05 11:35:45;;;;;;;12.80;8.18;;;;;;;12.47;70.64;101650.06;5035261;28;20029;-61
2022/11/05 11:38:14;;;;;;;9.00;7.10;;;;;;;12.71;69.26;101650.44;5033898;28;20025;-61
2022/11/05 11:40:42;;;;;;;15.68;8.13;;;;;;;13.03;68.46;101650.34;5033795;28;20479;-61
2022/11/05 11:43:26;;;;;;;14.45;6.75;;;;;;;13.59;67.57;101651.34;5034184;28;20030;-61
2022/11/05 11:45:55;;;;;;;12.00;6.70;;;;;;;14.11;64.56;101662.34;5035127;28;20021;-61
2022/11/05 11:48:28;;;;;;;13.23;6.80;;;;;;;14.33;63.36;101651.97;5049431;28;20074;-61
2022/11/05 11:50:57;;;;;;;13.60;6.20;;;;;;;14.63;60.76;101662.47;5054851;28;20468;-61
2022/11/05 11:53:23;;;;;;;9.60;5.80;;;;;;;14.83;59.73;101654.91;5053690;28;20094;-62
2022/11/05 11:56:01;;;;;;;10.30;5.45;;;;;;;15.07;59.03;101655.91;5053380;28;20029;-61
2022/11/05 11:58:43;;;;;;;9.90;5.95;;;;;;;15.22;60.17;101648.63;5050415;28;20399;-61
2022/11/05 12:01:23;;;;;;;6.53;5.32;;;;;;;15.45;58.55;101647.00;5033574;28;20060;-61
2022/11/05 12:04:10;;;;;;;8.82;5.53;;;;;;;15.76;59.49;101644.84;5034903;28;20040;-61
2022/11/05 12:06:50;;;;;;;9.77;5.10;;;;;;;15.56;57.45;101636.38;5034869;28;20396;-61
2022/11/05 12:09:27;;;;;;;10.95;5.22;;;;;;;15.77;55.92;101638.53;5038244;28;20377;-62
2022/11/05 12:11:55;;;;;;;11.02;5.20;;;;;;;16.19;56.00;101637.19;5046278;28;20568;-61
2022/11/05 12:14:38;;;;;;;11.15;5.28;;;;;;;16.03;56.32;101641.97;5042015;28;20124;-61
2022/11/05 12:18:02;;;;;;;9.23;5.40;;;;;;;15.08;58.23;101648.72;5041741;28;20484;-61